sensor_id;sensor_type;location;lat;lon;timestamp;P1;durP1;ratioP1;P2;durP2;ratioP2
17141;SDS011;32805;53.556;9.944;2022-11-20T00:00:54;3.83;;;3.15;;
17141;SDS011;32805;53.556;9.944;2022-11-20T00:03:22;7.05;;;3.25;;
17141;SDS011;32805;53.556;9.944;2022-11-20T00:05:50;4.43;;;3.10;;
17141;SDS011;32805;53.556;9.944;2022-11-20T00:08:17;5.47;;;3.65;;
17141;SDS011;32805;53.556;9.944;2022-11-20T00:10:45;3.83;;;3.10;;
17141;SDS011;32805;53.556;9.944;2022-11-20T00:13:13;3.83;;;3.30;;
17141;SDS011;32805;53.556;9.944;2022-11-20T00:15:40;9.98;;;6.22;;
17141;SDS011;32805;53.556;9.944;2022-11-20T00:18:10;5.80;;;4.20;;
17141;SDS011;32805;53.556;9.944;2022-11-20T00:20:37;5.88;;;3.95;;
17141;SDS011;32805;53.556;9.944;2022-11-20T00:23:05;5.72;;;3.58;;
17141;SDS011;32805;53.556;9.944;2022-11-20T00:25:33;4.63;;;3.25;;
17141;SDS011;32805;53.556;9.944;2022-11-20T00:28:01;5.80;;;3.80;;
17141;SDS011;32805;53.556;9.944;2022-11-20T00:30:29;4.85;;;3.35;;
17141;SDS011;32805;53.556;9.944;2022-11-20T00:32:57;5.18;;;3.40;;
17141;SDS011;32805;53.556;9.944;2022-11-20T00:35:26;5.07;;;3.30;;
17141;SDS011;32805;53.556;9.944;2022-11-20T00:37:56;5.75;;;3.42;;
17141;SDS011;32805;53.556;9.944;2022-11-20T00:40:23;4.18;;;3.10;;
17141;SDS011;32805;53.556;9.944;2022-11-20T00:42:51;5.10;;;3.58;;
17141;SDS011;32805;53.556;9.944;2022-11-20T00:45:18;4.35;;;3.20;;
17141;SDS011;32805;53.556;9.944;2022-11-20T00:47:46;4.35;;;2.85;;
17141;SDS011;32805;53.556;9.944;2022-11-20T00:50:14;4.85;;;3.60;;
17141;SDS011;32805;53.556;9.944;2022-11-20T00:52:43;5.05;;;3.22;;
17141;SDS011;32805;53.556;9.944;2022-11-20T00:55:11;4.13;;;3.35;;
17141;SDS011;32805;53.556;9.944;2022-11-20T00:57:39;5.13;;;3.40;;
17141;SDS011;32805;53.556;9.944;2022-11-20T01:00:07;4.47;;;3.42;;
17141;SDS011;32805;53.556;9.944;2022-11-20T01:02:35;6.35;;;4.07;;
17141;SDS011;32805;53.556;9.944;2022-11-20T01:05:03;4.53;;;3.25;;
17141;SDS011;32805;53.556;9.944;2022-11-20T01:07:31;4.53;;;3.50;;
17141;SDS011;32805;53.556;9.944;2022-11-20T01:10:07;4.63;;;3.40;;
17141;SDS011;32805;53.556;9.944;2022-11-20T01:12:35;5.80;;;3.40;;
17141;SDS011;32805;53.556;9.944;2022-11-20T01:15:03;3.90;;;3.47;;
17141;SDS011;32805;53.556;9.944;2022-11-20T01:17:31;6.50;;;3.28;;
17141;SDS011;32805;53.556;9.944;2022-11-20T01:20:02;6.22;;;3.72;;
17141;SDS011;32805;53.556;9.944;2022-11-20T01:22:30;6.25;;;3.15;;
17141;SDS011;32805;53.556;9.944;2022-11-20T01:24:58;3.50;;;2.97;;
17141;SDS011;32805;53.556;9.944;2022-11-20T01:27:27;3.78;;;3.35;;
17141;SDS011;32805;53.556;9.944;2022-11-20T01:29:55;4.43;;;3.60;;
17141;SDS011;32805;53.556;9.944;2022-11-20T01:32:26;5.18;;;3.58;;
17141;SDS011;32805;53.556;9.944;2022-11-20T01:34:54;4.53;;;3.40;;
17141;SDS011;32805;53.556;9.944;2022-11-20T01:37:22;5.50;;;3.72;;
17141;SDS011;32805;53.556;9.944;2022-11-20T01:39:49;4.95;;;3.28;;
17141;SDS011;32805;53.556;9.944;2022-11-20T01:42:17;4.45;;;3.03;;
17141;SDS011;32805;53.556;9.944;2022-11-20T01:48:15;4.05;;;3.20;;
17141;SDS011;32805;53.556;9.944;2022-11-20T01:50:45;4.60;;;3.50;;
17141;SDS011;32805;53.556;9.944;2022-11-20T01:53:13;4.40;;;3.58;;
17141;SDS011;32805;53.556;9.944;2022-11-20T01:55:45;4.70;;;3.50;;
17141;SDS011;32805;53.556;9.944;2022-11-20T01:58:16;4.43;;;3.08;;
17141;SDS011;32805;53.556;9.944;2022-11-20T02:00:46;4.65;;;3.78;;
17141;SDS011;32805;53.556;9.944;2022-11-20T02:03:14;4.88;;;3.13;;
17141;SDS011;32805;53.556;9.944;2022-11-20T02:05:46;6.80;;;3.53;;
17141;SDS011;32805;53.556;9.944;2022-11-20T02:08:19;7.25;;;3.90;;
17141;SDS011;32805;53.556;9.944;2022-11-20T02:10:49;5.18;;;3.85;;
17141;SDS011;32805;53.556;9.944;2022-11-20T02:13:16;5.38;;;3.75;;
17141;SDS011;32805;53.556;9.944;2022-11-20T02:16:02;4.93;;;3.83;;
17141;SDS011;32805;53.556;9.944;2022-11-20T02:18:32;9.38;;;3.25;;
17141;SDS011;32805;53.556;9.944;2022-11-20T02:21:02;3.75;;;3.42;;
17141;SDS011;32805;53.556;9.944;2022-11-20T02:23:36;5.05;;;4.00;;
17141;SDS011;32805;53.556;9.944;2022-11-20T02:26:09;4.78;;;3.90;;
17141;SDS011;32805;53.556;9.944;2022-11-20T02:28:39;6.43;;;4.03;;
17141;SDS011;32805;53.556;9.944;2022-11-20T02:31:07;4.18;;;3.55;;
17141;SDS011;32805;53.556;9.944;2022-11-20T02:33:35;5.32;;;4.10;;
17141;SDS011;32805;53.556;9.944;2022-11-20T02:36:03;5.03;;;4.07;;
17141;SDS011;32805;53.556;9.944;2022-11-20T02:38:30;3.90;;;3.45;;
17141;SDS011;32805;53.556;9.944;2022-11-20T02:40:58;6.35;;;4.15;;
17141;SDS011;32805;53.556;9.944;2022-11-20T02:43:27;4.05;;;3.65;;
17141;SDS011;32805;53.556;9.944;2022-11-20T02:45:55;7.70;;;5.10;;
17141;SDS011;32805;53.556;9.944;2022-11-20T02:48:23;4.68;;;3.85;;
17141;SDS011;32805;53.556;9.944;2022-11-20T02:50:51;4.00;;;3.60;;
17141;SDS011;32805;53.556;9.944;2022-11-20T02:53:18;5.35;;;3.55;;
17141;SDS011;32805;53.556;9.944;2022-11-20T02:55:49;4.75;;;3.80;;
17141;SDS011;32805;53.556;9.944;2022-11-20T02:58:17;5.25;;;4.20;;
17141;SDS011;32805;53.556;9.944;2022-11-20T03:00:46;4.75;;;4.20;;
17141;SDS011;32805;53.556;9.944;2022-11-20T03:03:13;6.30;;;4.10;;
17141;SDS011;32805;53.556;9.944;2022-11-20T03:05:41;5.47;;;3.97;;
17141;SDS011;32805;53.556;9.944;2022-11-20T03:08:09;3.90;;;3.50;;
17141;SDS011;32805;53.556;9.944;2022-11-20T03:10:37;4.50;;;3.67;;
17141;SDS011;32805;53.556;9.944;2022-11-20T03:13:04;3.75;;;3.35;;
17141;SDS011;32805;53.556;9.944;2022-11-20T03:15:32;5.43;;;4.28;;
17141;SDS011;32805;53.556;9.944;2022-11-20T03:18:01;5.30;;;3.88;;
17141;SDS011;32805;53.556;9.944;2022-11-20T03:20:29;5.07;;;3.92;;
17141;SDS011;32805;53.556;9.944;2022-11-20T03:22:57;4.97;;;3.63;;
17141;SDS011;32805;53.556;9.944;2022-11-20T03:25:24;4.57;;;3.90;;
17141;SDS011;32805;53.556;9.944;2022-11-20T03:27:53;4.82;;;3.58;;
17141;SDS011;32805;53.556;9.944;2022-11-20T03:30:21;4.88;;;3.88;;
17141;SDS011;32805;53.556;9.944;2022-11-20T03:32:56;4.55;;;3.95;;
17141;SDS011;32805;53.556;9.944;2022-11-20T03:35:25;4.00;;;3.60;;
17141;SDS011;32805;53.556;9.944;2022-11-20T03:37:52;5.53;;;3.75;;
17141;SDS011;32805;53.556;9.944;2022-11-20T03:40:20;4.72;;;4.07;;
17141;SDS011;32805;53.556;9.944;2022-11-20T03:42:48;4.55;;;3.83;;
17141;SDS011;32805;53.556;9.944;2022-11-20T03:45:16;5.45;;;3.70;;
17141;SDS011;32805;53.556;9.944;2022-11-20T03:47:45;4.85;;;3.80;;
17141;SDS011;32805;53.556;9.944;2022-11-20T03:50:13;6.13;;;3.80;;
17141;SDS011;32805;53.556;9.944;2022-11-20T03:52:42;5.07;;;3.75;;
17141;SDS011;32805;53.556;9.944;2022-11-20T03:55:10;4.95;;;3.92;;
17141;SDS011;32805;53.556;9.944;2022-11-20T03:57:38;5.25;;;3.53;;
17141;SDS011;32805;53.556;9.944;2022-11-20T04:00:06;6.38;;;3.67;;
17141;SDS011;32805;53.556;9.944;2022-11-20T04:02:34;4.28;;;3.67;;
17141;SDS011;32805;53.556;9.944;2022-11-20T04:05:02;4.50;;;3.63;;
17141;SDS011;32805;53.556;9.944;2022-11-20T04:07:30;6.43;;;3.90;;
17141;SDS011;32805;53.556;9.944;2022-11-20T04:09:59;5.28;;;3.90;;
17141;SDS011;32805;53.556;9.944;2022-11-20T04:12:27;4.57;;;3.78;;
17141;SDS011;32805;53.556;9.944;2022-11-20T04:14:58;4.07;;;3.63;;
17141;SDS011;32805;53.556;9.944;2022-11-20T04:17:26;6.38;;;3.65;;
17141;SDS011;32805;53.556;9.944;2022-11-20T04:19:54;4.70;;;3.65;;
17141;SDS011;32805;53.556;9.944;2022-11-20T04:22:22;5.07;;;3.60;;
17141;SDS011;32805;53.556;9.944;2022-11-20T04:24:50;4.18;;;3.33;;
17141;SDS011;32805;53.556;9.944;2022-11-20T04:27:19;5.32;;;3.80;;
17141;SDS011;32805;53.556;9.944;2022-11-20T04:29:46;4.32;;;3.55;;
17141;SDS011;32805;53.556;9.944;2022-11-20T04:32:14;4.63;;;3.65;;
17141;SDS011;32805;53.556;9.944;2022-11-20T04:34:42;5.55;;;3.97;;
17141;SDS011;32805;53.556;9.944;2022-11-20T04:37:10;6.07;;;3.95;;
17141;SDS011;32805;53.556;9.944;2022-11-20T04:39:38;6.90;;;3.85;;
17141;SDS011;32805;53.556;9.944;2022-11-20T04:42:07;6.20;;;3.85;;
17141;SDS011;32805;53.556;9.944;2022-11-20T04:44:53;4.05;;;3.33;;
17141;SDS011;32805;53.556;9.944;2022-11-20T04:47:21;4.88;;;3.92;;
17141;SDS011;32805;53.556;9.944;2022-11-20T04:49:49;6.45;;;4.05;;
17141;SDS011;32805;53.556;9.944;2022-11-20T04:52:17;7.28;;;3.95;;
17141;SDS011;32805;53.556;9.944;2022-11-20T04:54:45;5.35;;;3.58;;
17141;SDS011;32805;53.556;9.944;2022-11-20T04:57:13;6.03;;;4.15;;
17141;SDS011;32805;53.556;9.944;2022-11-20T04:59:42;6.45;;;3.63;;
17141;SDS011;32805;53.556;9.944;2022-11-20T05:02:12;4.40;;;3.90;;
17141;SDS011;32805;53.556;9.944;2022-11-20T05:04:39;4.38;;;3.40;;
17141;SDS011;32805;53.556;9.944;2022-11-20T05:07:07;6.50;;;3.55;;
17141;SDS011;32805;53.556;9.944;2022-11-20T05:09:35;6.28;;;4.10;;
17141;SDS011;32805;53.556;9.944;2022-11-20T05:12:03;7.65;;;4.47;;
17141;SDS011;32805;53.556;9.944;2022-11-20T05:14:31;4.68;;;3.83;;
17141;SDS011;32805;53.556;9.944;2022-11-20T05:16:58;5.38;;;3.67;;
17141;SDS011;32805;53.556;9.944;2022-11-20T05:19:28;7.78;;;4.32;;
17141;SDS011;32805;53.556;9.944;2022-11-20T05:21:56;4.88;;;3.83;;
17141;SDS011;32805;53.556;9.944;2022-11-20T05:24:23;4.32;;;3.92;;
17141;SDS011;32805;53.556;9.944;2022-11-20T05:26:51;5.05;;;4.00;;
17141;SDS011;32805;53.556;9.944;2022-11-20T05:29:19;7.15;;;3.63;;
17141;SDS011;32805;53.556;9.944;2022-11-20T05:31:47;6.88;;;4.32;;
17141;SDS011;32805;53.556;9.944;2022-11-20T05:34:14;7.05;;;4.22;;
17141;SDS011;32805;53.556;9.944;2022-11-20T05:36:43;3.70;;;3.38;;
17141;SDS011;32805;53.556;9.944;2022-11-20T05:39:11;5.30;;;4.20;;
17141;SDS011;32805;53.556;9.944;2022-11-20T05:41:39;5.15;;;4.18;;
17141;SDS011;32805;53.556;9.944;2022-11-20T05:44:06;4.55;;;3.75;;
17141;SDS011;32805;53.556;9.944;2022-11-20T05:46:34;4.78;;;3.95;;
17141;SDS011;32805;53.556;9.944;2022-11-20T05:49:02;5.05;;;3.97;;
17141;SDS011;32805;53.556;9.944;2022-11-20T05:51:29;5.30;;;3.95;;
17141;SDS011;32805;53.556;9.944;2022-11-20T05:53:58;4.53;;;3.67;;
17141;SDS011;32805;53.556;9.944;2022-11-20T05:56:26;5.18;;;4.47;;
17141;SDS011;32805;53.556;9.944;2022-11-20T05:58:54;4.60;;;4.00;;
17141;SDS011;32805;53.556;9.944;2022-11-20T06:01:22;5.65;;;4.07;;
17141;SDS011;32805;53.556;9.944;2022-11-20T06:03:52;5.75;;;4.60;;
17141;SDS011;32805;53.556;9.944;2022-11-20T06:06:20;6.00;;;4.40;;
17141;SDS011;32805;53.556;9.944;2022-11-20T06:08:48;8.73;;;5.03;;
17141;SDS011;32805;53.556;9.944;2022-11-20T06:11:18;6.47;;;4.93;;
17141;SDS011;32805;53.556;9.944;2022-11-20T06:13:46;7.07;;;5.50;;
17141;SDS011;32805;53.556;9.944;2022-11-20T06:16:15;7.35;;;5.15;;
17141;SDS011;32805;53.556;9.944;2022-11-20T06:18:43;9.63;;;5.80;;
17141;SDS011;32805;53.556;9.944;2022-11-20T06:21:12;7.75;;;6.15;;
17141;SDS011;32805;53.556;9.944;2022-11-20T06:23:41;7.93;;;5.05;;
17141;SDS011;32805;53.556;9.944;2022-11-20T06:26:12;7.63;;;5.57;;
17141;SDS011;32805;53.556;9.944;2022-11-20T06:28:42;6.30;;;4.93;;
17141;SDS011;32805;53.556;9.944;2022-11-20T06:31:10;6.22;;;5.30;;
17141;SDS011;32805;53.556;9.944;2022-11-20T06:33:39;6.05;;;5.13;;
17141;SDS011;32805;53.556;9.944;2022-11-20T06:36:07;7.47;;;5.22;;
17141;SDS011;32805;53.556;9.944;2022-11-20T06:38:36;6.43;;;5.30;;
17141;SDS011;32805;53.556;9.944;2022-11-20T06:41:04;6.55;;;5.28;;
17141;SDS011;32805;53.556;9.944;2022-11-20T06:43:32;7.28;;;5.32;;
17141;SDS011;32805;53.556;9.944;2022-11-20T06:46:01;5.97;;;4.75;;
17141;SDS011;32805;53.556;9.944;2022-11-20T06:48:29;6.63;;;4.88;;
17141;SDS011;32805;53.556;9.944;2022-11-20T06:50:57;6.88;;;4.63;;
17141;SDS011;32805;53.556;9.944;2022-11-20T06:53:27;5.35;;;3.72;;
17141;SDS011;32805;53.556;9.944;2022-11-20T06:55:55;5.55;;;4.60;;
17141;SDS011;32805;53.556;9.944;2022-11-20T06:58:26;4.85;;;3.97;;
17141;SDS011;32805;53.556;9.944;2022-11-20T07:00:57;6.65;;;4.50;;
17141;SDS011;32805;53.556;9.944;2022-11-20T07:03:27;4.90;;;4.15;;
17141;SDS011;32805;53.556;9.944;2022-11-20T07:05:54;5.75;;;4.28;;
17141;SDS011;32805;53.556;9.944;2022-11-20T07:08:23;5.25;;;4.18;;
17141;SDS011;32805;53.556;9.944;2022-11-20T07:10:50;6.35;;;4.18;;
17141;SDS011;32805;53.556;9.944;2022-11-20T07:13:18;5.85;;;4.13;;
17141;SDS011;32805;53.556;9.944;2022-11-20T07:15:46;5.50;;;4.40;;
17141;SDS011;32805;53.556;9.944;2022-11-20T07:18:13;5.68;;;4.30;;
17141;SDS011;32805;53.556;9.944;2022-11-20T07:20:42;5.50;;;4.47;;
17141;SDS011;32805;53.556;9.944;2022-11-20T07:23:10;17.92;;;8.57;;
17141;SDS011;32805;53.556;9.944;2022-11-20T07:25:38;8.10;;;4.93;;
17141;SDS011;32805;53.556;9.944;2022-11-20T07:28:06;6.20;;;4.75;;
17141;SDS011;32805;53.556;9.944;2022-11-20T07:30:33;5.72;;;4.90;;
17141;SDS011;32805;53.556;9.944;2022-11-20T07:33:01;8.80;;;4.53;;
17141;SDS011;32805;53.556;9.944;2022-11-20T07:35:29;6.47;;;4.60;;
17141;SDS011;32805;53.556;9.944;2022-11-20T07:37:58;5.82;;;4.68;;
17141;SDS011;32805;53.556;9.944;2022-11-20T07:40:25;5.80;;;4.53;;
17141;SDS011;32805;53.556;9.944;2022-11-20T07:42:54;9.60;;;6.03;;
17141;SDS011;32805;53.556;9.944;2022-11-20T07:45:23;6.60;;;5.05;;
17141;SDS011;32805;53.556;9.944;2022-11-20T07:47:51;7.75;;;5.05;;
17141;SDS011;32805;53.556;9.944;2022-11-20T07:50:19;7.00;;;4.78;;
17141;SDS011;32805;53.556;9.944;2022-11-20T07:52:47;7.95;;;5.80;;
17141;SDS011;32805;53.556;9.944;2022-11-20T07:55:16;7.57;;;5.05;;
17141;SDS011;32805;53.556;9.944;2022-11-20T07:57:44;7.72;;;5.03;;
17141;SDS011;32805;53.556;9.944;2022-11-20T08:00:13;8.45;;;4.57;;
17141;SDS011;32805;53.556;9.944;2022-11-20T08:02:42;6.18;;;4.88;;
17141;SDS011;32805;53.556;9.944;2022-11-20T08:05:12;6.97;;;4.60;;
17141;SDS011;32805;53.556;9.944;2022-11-20T08:07:41;6.00;;;5.03;;
17141;SDS011;32805;53.556;9.944;2022-11-20T08:10:11;8.15;;;4.70;;
17141;SDS011;32805;53.556;9.944;2022-11-20T08:12:44;5.20;;;4.22;;
17141;SDS011;32805;53.556;9.944;2022-11-20T08:15:30;6.40;;;4.85;;
17141;SDS011;32805;53.556;9.944;2022-11-20T08:17:59;6.65;;;4.63;;
17141;SDS011;32805;53.556;9.944;2022-11-20T08:20:47;6.25;;;4.65;;
17141;SDS011;32805;53.556;9.944;2022-11-20T08:23:15;7.93;;;5.25;;
17141;SDS011;32805;53.556;9.944;2022-11-20T08:25:43;7.65;;;5.15;;
17141;SDS011;32805;53.556;9.944;2022-11-20T08:28:12;6.72;;;5.20;;
17141;SDS011;32805;53.556;9.944;2022-11-20T08:30:47;5.65;;;4.47;;
17141;SDS011;32805;53.556;9.944;2022-11-20T08:33:14;5.50;;;4.00;;
17141;SDS011;32805;53.556;9.944;2022-11-20T08:35:43;4.50;;;3.90;;
17141;SDS011;32805;53.556;9.944;2022-11-20T08:38:11;6.38;;;4.03;;
17141;SDS011;32805;53.556;9.944;2022-11-20T08:40:39;6.40;;;3.60;;
17141;SDS011;32805;53.556;9.944;2022-11-20T08:43:06;4.03;;;3.40;;
17141;SDS011;32805;53.556;9.944;2022-11-20T08:45:35;4.85;;;3.38;;
17141;SDS011;32805;53.556;9.944;2022-11-20T08:48:03;3.75;;;3.42;;
17141;SDS011;32805;53.556;9.944;2022-11-20T08:50:32;4.50;;;3.25;;
17141;SDS011;32805;53.556;9.944;2022-11-20T08:53:02;3.65;;;3.35;;
17141;SDS011;32805;53.556;9.944;2022-11-20T08:55:30;6.07;;;3.38;;
17141;SDS011;32805;53.556;9.944;2022-11-20T08:57:58;4.43;;;3.75;;
17141;SDS011;32805;53.556;9.944;2022-11-20T09:00:30;6.28;;;3.67;;
17141;SDS011;32805;53.556;9.944;2022-11-20T09:02:59;5.28;;;3.42;;
17141;SDS011;32805;53.556;9.944;2022-11-20T09:05:28;3.97;;;3.45;;
17141;SDS011;32805;53.556;9.944;2022-11-20T09:07:56;4.70;;;3.47;;
17141;SDS011;32805;53.556;9.944;2022-11-20T09:10:25;4.50;;;3.40;;
17141;SDS011;32805;53.556;9.944;2022-11-20T09:12:56;3.67;;;3.08;;
17141;SDS011;32805;53.556;9.944;2022-11-20T09:15:26;3.95;;;3.47;;
17141;SDS011;32805;53.556;9.944;2022-11-20T09:18:06;4.38;;;3.50;;
17141;SDS011;32805;53.556;9.944;2022-11-20T09:20:37;3.95;;;2.72;;
17141;SDS011;32805;53.556;9.944;2022-11-20T09:23:08;4.22;;;2.90;;
17141;SDS011;32805;53.556;9.944;2022-11-20T09:25:35;5.70;;;4.00;;
17141;SDS011;32805;53.556;9.944;2022-11-20T09:28:03;4.38;;;2.95;;
17141;SDS011;32805;53.556;9.944;2022-11-20T09:30:34;6.95;;;3.90;;
17141;SDS011;32805;53.556;9.944;2022-11-20T09:33:05;3.45;;;2.85;;
17141;SDS011;32805;53.556;9.944;2022-11-20T09:35:35;3.15;;;2.65;;
17141;SDS011;32805;53.556;9.944;2022-11-20T09:38:06;4.53;;;2.80;;
17141;SDS011;32805;53.556;9.944;2022-11-20T09:40:37;3.72;;;2.80;;
17141;SDS011;32805;53.556;9.944;2022-11-20T09:43:09;4.63;;;3.25;;
17141;SDS011;32805;53.556;9.944;2022-11-20T09:45:47;3.58;;;2.83;;
17141;SDS011;32805;53.556;9.944;2022-11-20T09:48:31;9.70;;;4.60;;
17141;SDS011;32805;53.556;9.944;2022-11-20T09:51:05;3.50;;;2.92;;
17141;SDS011;32805;53.556;9.944;2022-11-20T09:53:44;3.00;;;2.70;;
17141;SDS011;32805;53.556;9.944;2022-11-20T09:56:19;3.90;;;2.80;;
17141;SDS011;32805;53.556;9.944;2022-11-20T09:58:49;3.10;;;2.53;;
17141;SDS011;32805;53.556;9.944;2022-11-20T10:01:19;4.18;;;3.13;;
17141;SDS011;32805;53.556;9.944;2022-11-20T10:03:52;3.08;;;2.75;;
17141;SDS011;32805;53.556;9.944;2022-11-20T10:06:24;4.03;;;3.05;;
17141;SDS011;32805;53.556;9.944;2022-11-20T10:09:01;3.17;;;2.88;;
17141;SDS011;32805;53.556;9.944;2022-11-20T10:11:44;3.00;;;2.70;;
17141;SDS011;32805;53.556;9.944;2022-11-20T10:14:17;2.75;;;2.55;;
17141;SDS011;32805;53.556;9.944;2022-11-20T10:16:55;3.38;;;2.83;;
17141;SDS011;32805;53.556;9.944;2022-11-20T10:19:35;3.42;;;2.63;;
17141;SDS011;32805;53.556;9.944;2022-11-20T10:22:25;3.78;;;2.60;;
17141;SDS011;32805;53.556;9.944;2022-11-20T10:25:04;2.95;;;2.55;;
17141;SDS011;32805;53.556;9.944;2022-11-20T10:28:00;3.63;;;3.00;;
17141;SDS011;32805;53.556;9.944;2022-11-20T10:30:50;3.72;;;2.78;;
17141;SDS011;32805;53.556;9.944;2022-11-20T10:33:24;2.95;;;2.63;;
17141;SDS011;32805;53.556;9.944;2022-11-20T10:36:16;2.97;;;2.58;;
17141;SDS011;32805;53.556;9.944;2022-11-20T10:38:49;3.17;;;2.80;;
17141;SDS011;32805;53.556;9.944;2022-11-20T10:41:20;3.83;;;3.08;;
17141;SDS011;32805;53.556;9.944;2022-11-20T10:43:54;3.90;;;2.58;;
17141;SDS011;32805;53.556;9.944;2022-11-20T10:46:33;3.80;;;2.80;;
17141;SDS011;32805;53.556;9.944;2022-11-20T10:49:09;4.03;;;3.42;;
17141;SDS011;32805;53.556;9.944;2022-11-20T10:51:44;3.28;;;2.97;;
17141;SDS011;32805;53.556;9.944;2022-11-20T10:54:21;5.80;;;3.60;;
17141;SDS011;32805;53.556;9.944;2022-11-20T10:56:56;4.30;;;3.55;;
17141;SDS011;32805;53.556;9.944;2022-11-20T10:59:41;4.70;;;3.38;;
17141;SDS011;32805;53.556;9.944;2022-11-20T11:02:33;4.18;;;3.08;;
17141;SDS011;32805;53.556;9.944;2022-11-20T11:05:11;3.38;;;3.08;;
17141;SDS011;32805;53.556;9.944;2022-11-20T11:07:47;3.63;;;3.08;;
17141;SDS011;32805;53.556;9.944;2022-11-20T11:10:18;3.50;;;3.20;;
17141;SDS011;32805;53.556;9.944;2022-11-20T11:12:50;4.28;;;3.42;;
17141;SDS011;32805;53.556;9.944;2022-11-20T11:15:25;4.45;;;3.20;;
17141;SDS011;32805;53.556;9.944;2022-11-20T11:17:53;3.63;;;2.80;;
17141;SDS011;32805;53.556;9.944;2022-11-20T11:20:22;3.38;;;3.08;;
17141;SDS011;32805;53.556;9.944;2022-11-20T11:22:53;3.47;;;3.17;;
17141;SDS011;32805;53.556;9.944;2022-11-20T11:25:26;3.85;;;3.05;;
17141;SDS011;32805;53.556;9.944;2022-11-20T11:27:57;3.75;;;3.17;;
17141;SDS011;32805;53.556;9.944;2022-11-20T11:30:26;3.15;;;2.85;;
17141;SDS011;32805;53.556;9.944;2022-11-20T11:33:03;3.20;;;2.72;;
17141;SDS011;32805;53.556;9.944;2022-11-20T11:35:33;3.38;;;2.70;;
17141;SDS011;32805;53.556;9.944;2022-11-20T11:38:04;3.03;;;2.72;;
17141;SDS011;32805;53.556;9.944;2022-11-20T11:40:33;3.10;;;2.80;;
17141;SDS011;32805;53.556;9.944;2022-11-20T11:43:04;3.20;;;2.90;;
17141;SDS011;32805;53.556;9.944;2022-11-20T11:46:00;3.35;;;3.03;;
17141;SDS011;32805;53.556;9.944;2022-11-20T11:48:27;3.33;;;2.90;;
17141;SDS011;32805;53.556;9.944;2022-11-20T11:50:55;6.80;;;2.95;;
17141;SDS011;32805;53.556;9.944;2022-11-20T11:53:24;3.75;;;3.33;;
17141;SDS011;32805;53.556;9.944;2022-11-20T11:55:54;3.63;;;3.33;;
17141;SDS011;32805;53.556;9.944;2022-11-20T11:58:32;5.80;;;2.88;;
17141;SDS011;32805;53.556;9.944;2022-11-20T12:01:12;2.88;;;2.67;;
17141;SDS011;32805;53.556;9.944;2022-11-20T12:03:52;4.30;;;2.85;;
17141;SDS011;32805;53.556;9.944;2022-11-20T12:06:26;2.85;;;2.60;;
17141;SDS011;32805;53.556;9.944;2022-11-20T12:08:59;2.65;;;2.45;;
17141;SDS011;32805;53.556;9.944;2022-11-20T12:11:31;3.03;;;1.85;;
17141;SDS011;32805;53.556;9.944;2022-11-20T12:14:02;2.40;;;2.20;;
17141;SDS011;32805;53.556;9.944;2022-11-20T12:16:37;2.20;;;1.70;;
17141;SDS011;32805;53.556;9.944;2022-11-20T12:19:07;1.70;;;1.60;;
17141;SDS011;32805;53.556;9.944;2022-11-20T12:21:41;2.17;;;1.98;;
17141;SDS011;32805;53.556;9.944;2022-11-20T12:24:31;3.05;;;2.75;;
17141;SDS011;32805;53.556;9.944;2022-11-20T12:27:11;2.53;;;2.33;;
17141;SDS011;32805;53.556;9.944;2022-11-20T12:29:58;2.40;;;2.20;;
17141;SDS011;32805;53.556;9.944;2022-11-20T12:32:36;3.35;;;2.58;;
17141;SDS011;32805;53.556;9.944;2022-11-20T12:35:27;4.55;;;2.50;;
17141;SDS011;32805;53.556;9.944;2022-11-20T12:38:06;2.58;;;2.28;;
17141;SDS011;32805;53.556;9.944;2022-11-20T12:40:51;5.22;;;3.40;;
17141;SDS011;32805;53.556;9.944;2022-11-20T12:43:28;2.92;;;2.72;;
17141;SDS011;32805;53.556;9.944;2022-11-20T12:46:22;6.38;;;3.55;;
17141;SDS011;32805;53.556;9.944;2022-11-20T12:49:12;3.13;;;2.83;;
17141;SDS011;32805;53.556;9.944;2022-11-20T12:51:53;3.95;;;3.20;;
17141;SDS011;32805;53.556;9.944;2022-11-20T12:54:55;3.30;;;3.00;;
17141;SDS011;32805;53.556;9.944;2022-11-20T12:57:38;3.17;;;2.70;;
17141;SDS011;32805;53.556;9.944;2022-11-20T13:00:14;5.88;;;3.65;;
17141;SDS011;32805;53.556;9.944;2022-11-20T13:02:52;3.03;;;2.78;;
17141;SDS011;32805;53.556;9.944;2022-11-20T13:05:51;3.65;;;2.83;;
17141;SDS011;32805;53.556;9.944;2022-11-20T13:08:23;3.80;;;2.85;;
17141;SDS011;32805;53.556;9.944;2022-11-20T13:10:57;4.20;;;2.88;;
17141;SDS011;32805;53.556;9.944;2022-11-20T13:13:33;3.90;;;2.42;;
17141;SDS011;32805;53.556;9.944;2022-11-20T13:16:10;3.05;;;2.65;;
17141;SDS011;32805;53.556;9.944;2022-11-20T13:18:46;2.55;;;2.35;;
17141;SDS011;32805;53.556;9.944;2022-11-20T13:21:15;2.25;;;2.05;;
17141;SDS011;32805;53.556;9.944;2022-11-20T13:23:44;2.90;;;2.13;;
17141;SDS011;32805;53.556;9.944;2022-11-20T13:26:16;1.70;;;1.60;;
17141;SDS011;32805;53.556;9.944;2022-11-20T13:28:59;2.35;;;1.75;;
17141;SDS011;32805;53.556;9.944;2022-11-20T13:31:33;2.70;;;1.80;;
17141;SDS011;32805;53.556;9.944;2022-11-20T13:34:02;1.80;;;1.60;;
17141;SDS011;32805;53.556;9.944;2022-11-20T13:36:33;2.10;;;1.90;;
17141;SDS011;32805;53.556;9.944;2022-11-20T13:39:02;1.52;;;1.42;;
17141;SDS011;32805;53.556;9.944;2022-11-20T13:41:31;2.15;;;1.52;;
17141;SDS011;32805;53.556;9.944;2022-11-20T13:44:09;2.90;;;2.00;;
17141;SDS011;32805;53.556;9.944;2022-11-20T13:46:41;4.18;;;2.65;;
17141;SDS011;32805;53.556;9.944;2022-11-20T13:49:18;2.10;;;1.90;;
17141;SDS011;32805;53.556;9.944;2022-11-20T13:51:51;3.90;;;2.13;;
17141;SDS011;32805;53.556;9.944;2022-11-20T13:54:32;3.13;;;1.83;;
17141;SDS011;32805;53.556;9.944;2022-11-20T14:00:11;2.28;;;2.05;;
17141;SDS011;32805;53.556;9.944;2022-11-20T14:02:41;3.15;;;2.40;;
17141;SDS011;32805;53.556;9.944;2022-11-20T14:05:15;2.28;;;2.05;;
17141;SDS011;32805;53.556;9.944;2022-11-20T14:07:47;2.67;;;2.47;;
17141;SDS011;32805;53.556;9.944;2022-11-20T14:10:21;2.63;;;2.40;;
17141;SDS011;32805;53.556;9.944;2022-11-20T14:12:56;2.60;;;2.40;;
17141;SDS011;32805;53.556;9.944;2022-11-20T14:15:27;3.17;;;2.67;;
17141;SDS011;32805;53.556;9.944;2022-11-20T14:17:56;3.53;;;2.40;;
17141;SDS011;32805;53.556;9.944;2022-11-20T14:20:25;4.13;;;2.42;;
17141;SDS011;32805;53.556;9.944;2022-11-20T14:22:55;2.40;;;2.08;;
17141;SDS011;32805;53.556;9.944;2022-11-20T14:25:24;3.10;;;2.53;;
17141;SDS011;32805;53.556;9.944;2022-11-20T14:27:54;3.70;;;2.58;;
17141;SDS011;32805;53.556;9.944;2022-11-20T14:30:25;4.72;;;3.65;;
17141;SDS011;32805;53.556;9.944;2022-11-20T14:33:00;3.33;;;2.90;;
17141;SDS011;32805;53.556;9.944;2022-11-20T14:35:31;8.85;;;4.22;;
17141;SDS011;32805;53.556;9.944;2022-11-20T14:38:02;12.43;;;5.05;;
17141;SDS011;32805;53.556;9.944;2022-11-20T14:40:31;8.57;;;4.85;;
17141;SDS011;32805;53.556;9.944;2022-11-20T14:43:04;4.90;;;3.40;;
17141;SDS011;32805;53.556;9.944;2022-11-20T14:45:47;5.35;;;3.20;;
17141;SDS011;32805;53.556;9.944;2022-11-20T14:48:20;8.63;;;3.92;;
17141;SDS011;32805;53.556;9.944;2022-11-20T14:50:51;9.98;;;4.63;;
17141;SDS011;32805;53.556;9.944;2022-11-20T14:53:22;5.93;;;2.95;;
17141;SDS011;32805;53.556;9.944;2022-11-20T14:55:54;2.42;;;2.22;;
17141;SDS011;32805;53.556;9.944;2022-11-20T14:58:25;12.57;;;5.60;;
17141;SDS011;32805;53.556;9.944;2022-11-20T15:00:56;18.20;;;7.38;;
17141;SDS011;32805;53.556;9.944;2022-11-20T15:03:30;16.58;;;6.43;;
17141;SDS011;32805;53.556;9.944;2022-11-20T15:05:59;4.88;;;2.40;;
17141;SDS011;32805;53.556;9.944;2022-11-20T15:08:27;8.07;;;3.70;;
17141;SDS011;32805;53.556;9.944;2022-11-20T15:10:55;12.90;;;5.55;;
17141;SDS011;32805;53.556;9.944;2022-11-20T15:13:25;8.63;;;4.20;;
17141;SDS011;32805;53.556;9.944;2022-11-20T15:15:58;12.65;;;5.78;;
17141;SDS011;32805;53.556;9.944;2022-11-20T15:18:28;4.82;;;3.03;;